createdAt,value
2019-01-28T00:00:39.325Z,96646.44
2019-01-28T00:03:55.051Z,96651.28
2019-01-28T00:07:10.255Z,96651.83
2019-01-28T00:10:25.815Z,96651.43
2019-01-28T00:13:41.063Z,96646.58
2019-01-28T00:16:56.431Z,96657.16
2019-01-28T00:20:12.281Z,96653.75
2019-01-28T00:23:27.827Z,96661.03
2019-01-28T00:26:43.189Z,96670.13
2019-01-28T00:29:58.339Z,96669.67
2019-01-28T00:33:13.586Z,96668.67
2019-01-28T00:36:28.853Z,96659.14
2019-01-28T00:39:44.190Z,96657.21
2019-01-28T00:42:59.559Z,96659.62
2019-01-28T00:46:14.695Z,96664.22
2019-01-28T00:49:30.353Z,96664.88
2019-01-28T00:52:45.746Z,96662.08
2019-01-28T00:56:00.856Z,96661.76
2019-01-28T00:59:16.002Z,96661.95
2019-01-28T01:02:31.503Z,96653.81
2019-01-28T01:05:46.910Z,96662.36
2019-01-28T01:09:02.414Z,96664.41
2019-01-28T01:12:17.712Z,96653.84
2019-01-28T01:15:32.866Z,96664.56
2019-01-28T01:18:48.221Z,96667.55
2019-01-28T01:22:03.369Z,96668.02
2019-01-28T01:25:18.728Z,96678.66
2019-01-28T01:28:34.074Z,96676.95
2019-01-28T01:31:49.986Z,96675.60
2019-01-28T01:35:06.143Z,96676.02
2019-01-28T01:38:21.337Z,96667.81
2019-01-28T01:41:36.923Z,96674.53
2019-01-28T01:44:52.066Z,96673.06
2019-01-28T01:48:07.436Z,96670.53
2019-01-28T01:51:22.987Z,96674.52
2019-01-28T01:54:38.125Z,96671.26
2019-01-28T01:57:53.581Z,96670.09
2019-01-28T02:01:08.931Z,96681.75
2019-01-28T02:04:24.400Z,96680.63
2019-01-28T02:07:39.741Z,96685.49
2019-01-28T02:10:55.199Z,96681.57
2019-01-28T02:14:10.549Z,96673.84
2019-01-28T02:17:25.919Z,96666.17
2019-01-28T02:20:59.097Z,96665.61
2019-01-28T02:24:12.547Z,96667.22
2019-01-28T02:27:26.023Z,96665.13
2019-01-28T02:30:39.470Z,96662.19
2019-01-28T02:33:53.414Z,96657.22
2019-01-28T02:37:06.839Z,96651.21
2019-01-28T02:40:20.641Z,96654.34
2019-01-28T02:43:34.081Z,96657.20
2019-01-28T02:46:47.520Z,96651.16
2019-01-28T02:50:00.970Z,96648.63
2019-01-28T02:53:14.426Z,96650.53
2019-01-28T02:56:27.871Z,96652.28
2019-01-28T02:59:41.702Z,96652.28
2019-01-28T03:02:55.154Z,96652.41
2019-01-28T03:06:08.588Z,96659.06
2019-01-28T03:09:22.051Z,96659.28
2019-01-28T03:12:35.594Z,96653.01
2019-01-28T03:15:49.045Z,96652.74
2019-01-28T03:19:02.974Z,96647.95
2019-01-28T03:22:16.411Z,96644.16
2019-01-28T03:25:29.971Z,96636.45
2019-01-28T03:28:43.415Z,96637.56
2019-01-28T03:31:57.144Z,96637.44
2019-01-28T03:35:11.138Z,96630.64
2019-01-28T03:38:24.596Z,96625.25
2019-01-28T03:41:38.324Z,96626.84
2019-01-28T03:44:51.885Z,96629.70
2019-01-28T03:48:05.423Z,96628.31
2019-01-28T03:51:18.871Z,96616.92
2019-01-28T03:54:32.414Z,96630.30
2019-01-28T03:57:46.137Z,96626.52
2019-01-28T04:00:59.620Z,96626.71
2019-01-28T04:04:13.078Z,96622.20
2019-01-28T04:07:26.759Z,96617.52
2019-01-28T04:10:40.212Z,96615.92
2019-01-28T04:13:53.767Z,96621.76
2019-01-28T04:17:07.210Z,96614.76
2019-01-28T04:20:21.728Z,96611.34
2019-01-28T04:23:35.178Z,96613.00
2019-01-28T04:26:48.627Z,96605.86
2019-01-28T04:30:03.263Z,96608.06
2019-01-28T04:33:17.096Z,96608.11
2019-01-28T04:36:30.814Z,96609.52
2019-01-28T04:39:44.283Z,96605.61
2019-01-28T04:42:57.720Z,96599.59
2019-01-28T04:46:11.453Z,96595.47
2019-01-28T04:49:25.171Z,96596.16
2019-01-28T04:52:38.600Z,96593.29
2019-01-28T04:55:52.043Z,96586.36
2019-01-28T04:59:05.797Z,96584.17
2019-01-28T05:02:19.514Z,96587.90
2019-01-28T05:05:32.968Z,96597.47
2019-01-28T05:08:46.421Z,96579.64
2019-01-28T05:11:59.852Z,96581.15
2019-01-28T05:15:14.437Z,96578.11
2019-01-28T05:18:28.193Z,96573.29
2019-01-28T05:21:41.642Z,96575.16
2019-01-28T05:24:55.100Z,96573.84
2019-01-28T05:28:08.535Z,96571.64
2019-01-28T05:31:22.098Z,96564.11
2019-01-28T05:34:35.567Z,96561.91
2019-01-28T05:37:49.208Z,96553.66
2019-01-28T05:41:02.775Z,96562.58
2019-01-28T05:44:16.213Z,96556.24
2019-01-28T05:47:29.658Z,96567.98
2019-01-28T05:50:43.507Z,96553.86
2019-01-28T05:53:56.956Z,96552.39
2019-01-28T05:57:10.599Z,96545.06
2019-01-28T06:00:31.995Z,96541.48
2019-01-28T06:03:45.438Z,96535.44
2019-01-28T06:06:58.908Z,96546.34
2019-01-28T06:10:12.677Z,96537.63
2019-01-28T06:13:26.124Z,96538.63
2019-01-28T06:16:39.987Z,96529.90
2019-01-28T06:19:53.428Z,96529.90
2019-01-28T06:23:06.898Z,96523.45
2019-01-28T06:26:21.980Z,96526.83
2019-01-28T06:29:35.588Z,96524.30
2019-01-28T06:32:49.586Z,96525.23
2019-01-28T06:36:03.248Z,96527.16
2019-01-28T06:39:16.820Z,96537.48
2019-01-28T06:42:30.292Z,96545.41
2019-01-28T06:45:43.764Z,96551.52
2019-01-28T06:48:57.213Z,96545.67
2019-01-28T06:52:10.671Z,96545.89
2019-01-28T06:55:24.144Z,96548.99
2019-01-28T06:58:37.685Z,96537.63
2019-01-28T07:01:51.235Z,96545.47
2019-01-28T07:05:05.180Z,96548.48
2019-01-28T07:08:18.727Z,96548.99
2019-01-28T07:11:32.439Z,96558.99
2019-01-28T07:14:45.874Z,96549.92
2019-01-28T07:17:59.435Z,96559.80
2019-01-28T07:21:12.909Z,96559.92
2019-01-28T07:24:26.899Z,96550.41
2019-01-28T07:27:40.457Z,96556.58
2019-01-28T07:30:54.027Z,96558.80
2019-01-28T07:34:07.538Z,96566.91
2019-01-28T07:37:21.102Z,96569.31
2019-01-28T07:40:34.701Z,96562.84
2019-01-28T07:43:48.153Z,96566.85
2019-01-28T07:47:01.602Z,96561.19
2019-01-28T07:50:15.254Z,96560.31
2019-01-28T07:53:28.708Z,96566.38
2019-01-28T07:56:42.259Z,96573.36
2019-01-28T07:59:55.851Z,96569.33
2019-01-28T08:03:09.262Z,96575.16
2019-01-28T08:06:22.922Z,96574.17
2019-01-28T08:09:36.690Z,96570.98
2019-01-28T08:12:50.581Z,96578.23
2019-01-28T08:16:04.216Z,96576.16
2019-01-28T08:19:17.682Z,96572.09
2019-01-28T08:22:31.140Z,96582.48
2019-01-28T08:25:44.637Z,96574.32
2019-01-28T08:28:58.296Z,96565.38
2019-01-28T08:32:11.872Z,96570.31
2019-01-28T08:35:26.984Z,96569.45
2019-01-28T08:38:40.444Z,96566.91
2019-01-28T08:41:53.933Z,96578.17
2019-01-28T08:45:08.537Z,96577.95
2019-01-28T08:48:22.000Z,96576.03
2019-01-28T08:51:36.501Z,96576.43
2019-01-28T08:54:49.964Z,96584.63
2019-01-28T08:58:03.813Z,96580.11
2019-01-28T09:01:17.393Z,96577.16
2019-01-28T09:04:30.989Z,96575.38
2019-01-28T09:07:44.621Z,96578.09
2019-01-28T09:10:58.243Z,96565.59
2019-01-28T09:14:11.852Z,96573.98
2019-01-28T09:17:25.565Z,96571.12
2019-01-28T09:20:39.310Z,96573.49
2019-01-28T09:23:52.959Z,96580.42
2019-01-28T09:27:06.658Z,96574.36
2019-01-28T09:30:22.907Z,96576.14
2019-01-28T09:33:36.568Z,96570.78
2019-01-28T09:36:50.083Z,96575.41
2019-01-28T09:40:05.847Z,96581.73
2019-01-28T09:43:19.640Z,96590.22
2019-01-28T09:46:33.661Z,96602.78
2019-01-28T09:49:47.274Z,96602.86
2019-01-28T09:53:00.850Z,96595.55
2019-01-28T09:56:14.398Z,96602.78
2019-01-28T09:59:27.964Z,96602.34
2019-01-28T10:02:41.606Z,96616.26
2019-01-28T10:05:55.190Z,96614.33
2019-01-28T10:09:10.332Z,96624.19
2019-01-28T10:12:24.235Z,96626.56
2019-01-28T10:15:38.216Z,96625.52
2019-01-28T10:18:51.949Z,96629.38
2019-01-28T10:22:05.971Z,96631.52
2019-01-28T10:25:20.232Z,96637.72
2019-01-28T10:28:33.718Z,96640.49
2019-01-28T10:31:47.229Z,96638.89
2019-01-28T10:35:00.792Z,96651.31
2019-01-28T10:38:16.169Z,96643.62
2019-01-28T10:41:29.739Z,96647.97
2019-01-28T10:44:43.699Z,96643.88
2019-01-28T10:48:00.762Z,96653.20
2019-01-28T10:51:12.697Z,96657.21
2019-01-28T10:54:26.190Z,96652.27
2019-01-28T10:57:39.940Z,96664.96
2019-01-28T11:00:53.494Z,96662.33
2019-01-28T11:04:07.326Z,96669.87
2019-01-28T11:07:21.235Z,96663.95
2019-01-28T11:10:35.007Z,96673.53
2019-01-28T11:13:49.022Z,96657.92
2019-01-28T11:17:03.021Z,96657.92
2019-01-28T11:20:17.040Z,96663.83
2019-01-28T11:23:32.339Z,96661.13
2019-01-28T11:26:46.067Z,96661.48
2019-01-28T11:29:59.687Z,96668.42
2019-01-28T11:33:13.541Z,96662.44
2019-01-28T11:36:27.345Z,96672.38
2019-01-28T11:39:41.099Z,96671.89
2019-01-28T11:42:54.707Z,96672.52
2019-01-28T11:46:08.420Z,96677.34
2019-01-28T11:49:22.319Z,96677.37
2019-01-28T11:52:36.132Z,96675.73
2019-01-28T11:55:49.820Z,96687.77
2019-01-28T11:59:03.839Z,96683.54
2019-01-28T12:02:17.587Z,96683.14
2019-01-28T12:05:31.504Z,96683.51
2019-01-28T12:08:45.429Z,96696.20
2019-01-28T12:11:59.242Z,96690.31
2019-01-28T12:15:13.695Z,96694.91
2019-01-28T12:18:27.250Z,96696.92
2019-01-28T12:21:40.718Z,96710.09
2019-01-28T12:24:54.190Z,96704.16
2019-01-28T12:28:07.940Z,96711.41
2019-01-28T12:31:21.511Z,96721.50
2019-01-28T12:34:39.670Z,96719.16
2019-01-28T12:37:50.858Z,96731.14
2019-01-28T12:41:04.476Z,96731.09
2019-01-28T12:44:18.252Z,96738.02
2019-01-28T12:47:31.716Z,96741.66
2019-01-28T12:50:45.689Z,96751.89
2019-01-28T12:53:59.302Z,96760.41
2019-01-28T12:57:12.757Z,96758.83
2019-01-28T13:00:31.644Z,96762.39
2019-01-28T13:03:45.448Z,96763.50
2019-01-28T13:06:59.055Z,96769.33
2019-01-28T13:10:15.540Z,96776.38
2019-01-28T13:13:29.292Z,96770.83
2019-01-28T13:16:42.730Z,96788.31
2019-01-28T13:19:56.290Z,96786.92
2019-01-28T13:23:09.952Z,96787.37
2019-01-28T13:26:23.552Z,96793.16
2019-01-28T13:29:37.506Z,96795.05
2019-01-28T13:32:52.287Z,96794.50
2019-01-28T13:36:09.331Z,96800.01
2019-01-28T13:39:21.623Z,96807.43
2019-01-28T13:42:35.598Z,96816.95
2019-01-28T13:45:49.380Z,96829.16
2019-01-28T13:49:03.075Z,96834.36
2019-01-28T13:52:16.841Z,96839.78
2019-01-28T13:55:30.526Z,96842.93
2019-01-28T13:58:44.019Z,96848.88
2019-01-28T14:01:57.855Z,96855.79
2019-01-28T14:05:11.762Z,96859.38
2019-01-28T14:08:25.217Z,96864.73
2019-01-28T14:11:38.974Z,96872.22
2019-01-28T14:14:52.505Z,96880.75
2019-01-28T14:18:10.339Z,96882.73
2019-01-28T14:21:23.827Z,96895.19
2019-01-28T14:24:37.391Z,96896.70
2019-01-28T14:27:50.968Z,96899.74
2019-01-28T14:31:04.982Z,96897.72
2019-01-28T14:34:18.496Z,96899.64
2019-01-28T14:37:32.436Z,96911.39
2019-01-28T14:40:46.632Z,96922.66
2019-01-28T14:44:00.131Z,96936.75
2019-01-28T14:47:13.821Z,96944.02
2019-01-28T14:50:29.546Z,96945.26
2019-01-28T14:53:43.084Z,96945.09
2019-01-28T14:56:56.664Z,96954.39
2019-01-28T15:00:12.092Z,96960.19
2019-01-28T15:03:25.543Z,96968.83
2019-01-28T15:06:39.238Z,96974.97
2019-01-28T15:09:53.045Z,96972.64
2019-01-28T15:13:06.786Z,96977.99
2019-01-28T15:16:20.259Z,96981.44
2019-01-28T15:19:33.698Z,96993.55
2019-01-28T15:22:47.488Z,97011.69
2019-01-28T15:26:01.171Z,97020.89
2019-01-28T15:29:15.039Z,97028.81
2019-01-28T15:32:28.727Z,97037.05
2019-01-28T15:35:42.600Z,97041.11
2019-01-28T15:38:56.524Z,97050.44
2019-01-28T15:42:10.115Z,97055.16
2019-01-28T15:45:26.392Z,97064.42
2019-01-28T15:48:40.843Z,97066.52
2019-01-28T15:51:54.355Z,97074.20
2019-01-28T15:55:10.957Z,97076.78
2019-01-28T15:58:24.438Z,97077.34
2019-01-28T16:01:38.284Z,97088.19
2019-01-28T16:04:51.865Z,97084.48
2019-01-28T16:08:06.375Z,97087.66
2019-01-28T16:11:19.858Z,97093.58
2019-01-28T16:14:33.317Z,97098.81
2019-01-28T16:17:46.918Z,97108.45
2019-01-28T16:21:00.860Z,97113.64
2019-01-28T16:24:14.959Z,97113.41
2019-01-28T16:27:28.436Z,97127.34
2019-01-28T16:30:42.565Z,97128.82
2019-01-28T16:33:56.412Z,97138.44
2019-01-28T16:37:11.485Z,97141.98
2019-01-28T16:40:25.433Z,97143.80
2019-01-28T16:43:39.136Z,97146.70
2019-01-28T16:46:52.703Z,97152.67
2019-01-28T16:50:07.714Z,97155.19
2019-01-28T16:53:22.163Z,97160.77
2019-01-28T16:56:35.627Z,97168.35
2019-01-28T16:59:49.412Z,97177.23
2019-01-28T17:03:04.425Z,97181.78
2019-01-28T17:06:18.030Z,97185.33
2019-01-28T17:09:31.482Z,97200.16
2019-01-28T17:12:44.964Z,97202.42
2019-01-28T17:15:58.463Z,97207.89
2019-01-28T17:19:12.228Z,97222.08
2019-01-28T17:22:26.036Z,97228.14
2019-01-28T17:25:44.825Z,97239.42
2019-01-28T17:28:58.398Z,97249.41
2019-01-28T17:32:12.197Z,97250.19
2019-01-28T17:35:25.873Z,97249.66
2019-01-28T17:38:39.732Z,97262.16
2019-01-28T17:41:53.298Z,97265.83
2019-01-28T17:45:09.686Z,97274.75
2019-01-28T17:48:23.150Z,97284.73
2019-01-28T17:51:37.151Z,97300.19
2019-01-28T17:54:50.632Z,97309.48
2019-01-28T17:58:05.787Z,97314.05
2019-01-28T18:01:19.735Z,97327.73
2019-01-28T18:04:34.473Z,97342.93
2019-01-28T18:07:47.934Z,97340.02
2019-01-28T18:11:01.506Z,97341.89
2019-01-28T18:14:15.288Z,97350.75
2019-01-28T18:17:28.773Z,97347.48
2019-01-28T18:20:42.362Z,97353.80
2019-01-28T18:23:55.841Z,97364.70
2019-01-28T18:27:09.476Z,97356.08
2019-01-28T18:30:28.897Z,97364.72
2019-01-28T18:33:42.372Z,97378.02
2019-01-28T18:36:55.926Z,97388.50
2019-01-28T18:40:10.665Z,97396.11
2019-01-28T18:43:24.139Z,97399.42
2019-01-28T18:46:37.712Z,97402.20
2019-01-28T18:49:51.235Z,97406.00
2019-01-28T18:53:05.607Z,97424.22
2019-01-28T18:56:19.145Z,97421.94
2019-01-28T18:59:32.631Z,97430.80
2019-01-28T19:02:46.391Z,97435.22
2019-01-28T19:06:22.593Z,97444.57
2019-01-28T19:09:40.824Z,97453.92
2019-01-28T19:13:11.428Z,97467.23
2019-01-28T19:16:44.758Z,97475.34
2019-01-28T19:20:21.336Z,97470.91
2019-01-28T19:23:34.906Z,97475.83
2019-01-28T19:26:48.367Z,97487.22
2019-01-28T19:30:02.123Z,97495.53
2019-01-28T19:33:15.558Z,97499.09
2019-01-28T19:36:29.020Z,97508.45
2019-01-28T19:39:42.505Z,97522.36
2019-01-28T19:42:56.001Z,97528.77
2019-01-28T19:46:09.563Z,97529.10
2019-01-28T19:49:23.136Z,97539.84
2019-01-28T19:52:36.694Z,97544.41
2019-01-28T19:55:50.259Z,97552.48
2019-01-28T19:59:03.852Z,97555.70
2019-01-28T20:02:17.287Z,97556.47
2019-01-28T20:05:31.035Z,97559.02
2019-01-28T20:08:44.693Z,97566.70
2019-01-28T20:11:58.265Z,97576.16
2019-01-28T20:15:13.862Z,97579.09
2019-01-28T20:18:27.525Z,97584.87
2019-01-28T20:21:40.979Z,97583.94
2019-01-28T20:24:54.482Z,97596.08
2019-01-28T20:28:08.050Z,97590.14
2019-01-28T20:31:21.505Z,97603.17
2019-01-28T20:34:43.172Z,97604.20
2019-01-28T20:37:50.746Z,97612.64
2019-01-28T20:41:04.298Z,97614.23
2019-01-28T20:44:17.840Z,97627.98
2019-01-28T20:47:31.921Z,97634.16
2019-01-28T20:50:45.596Z,97636.30
2019-01-28T20:53:59.054Z,97647.07
2019-01-28T20:57:12.470Z,97647.25
2019-01-28T21:00:26.413Z,97638.95
2019-01-28T21:03:40.148Z,97648.78
2019-01-28T21:06:53.593Z,97662.05
2019-01-28T21:10:09.306Z,97666.91
2019-01-28T21:13:22.858Z,97673.88
2019-01-28T21:16:36.303Z,97682.30
2019-01-28T21:19:50.328Z,97681.13
2019-01-28T21:23:03.885Z,97678.37
2019-01-28T21:26:17.771Z,97684.23
2019-01-28T21:29:31.230Z,97687.28
2019-01-28T21:32:44.803Z,97684.23
2019-01-28T21:36:17.322Z,97684.58
2019-01-28T21:39:30.888Z,97688.34
2019-01-28T21:42:44.973Z,97694.44
2019-01-28T21:45:58.530Z,97698.89
2019-01-28T21:49:12.074Z,97702.66
2019-01-28T21:52:25.537Z,97705.69
2019-01-28T21:55:39.019Z,97700.20
2019-01-28T21:58:52.462Z,97703.72
2019-01-28T22:02:06.351Z,97706.79
2019-01-28T22:05:19.802Z,97705.83
2019-01-28T22:08:33.246Z,97710.92
2019-01-28T22:11:46.694Z,97721.31
2019-01-28T22:15:00.169Z,97723.11
2019-01-28T22:18:13.694Z,97729.55
2019-01-28T22:21:27.170Z,97731.67
2019-01-28T22:24:40.601Z,97725.88
2019-01-28T22:27:57.345Z,97729.06
2019-01-28T22:31:10.086Z,97733.09
2019-01-28T22:34:23.532Z,97736.45
2019-01-28T22:37:36.982Z,97738.83
2019-01-28T22:40:50.533Z,97733.69
2019-01-28T22:44:04.179Z,97739.63
2019-01-28T22:47:17.628Z,97749.64
2019-01-28T22:50:31.103Z,97754.02
2019-01-28T22:53:44.546Z,97755.02
2019-01-28T22:56:58.275Z,97757.75
2019-01-28T23:00:43.707Z,97758.25
2019-01-28T23:03:59.242Z,97754.22
2019-01-28T23:07:14.805Z,97764.27
2019-01-28T23:10:30.150Z,97765.58
2019-01-28T23:13:45.908Z,97770.17
2019-01-28T23:17:01.375Z,97774.16
2019-01-28T23:20:16.855Z,97773.92
2019-01-28T23:23:32.179Z,97775.48
2019-01-28T23:26:47.535Z,97778.62
2019-01-28T23:30:02.999Z,97775.83
2019-01-28T23:33:18.135Z,97779.89
2019-01-28T23:36:33.296Z,97778.00
2019-01-28T23:39:48.638Z,97783.06
2019-01-28T23:43:03.891Z,97780.25
2019-01-28T23:46:19.661Z,97786.08
2019-01-28T23:49:35.206Z,97790.73
2019-01-28T23:52:50.453Z,97788.09
2019-01-28T23:56:05.799Z,97793.17
2019-01-28T23:59:21.157Z,97798.34
